sensor_id;sensor_type;location;lat;lon;timestamp;P1;durP1;ratioP1;P2;durP2;ratioP2
1479;SDS011;732;51.698;4.886;2022-11-20T00:01:29;16.02;;;7.88;;
1479;SDS011;732;51.698;4.886;2022-11-20T00:03:58;18.52;;;8.25;;
1479;SDS011;732;51.698;4.886;2022-11-20T00:06:27;14.35;;;7.07;;
1479;SDS011;732;51.698;4.886;2022-11-20T00:08:56;18.58;;;8.23;;
1479;SDS011;732;51.698;4.886;2022-11-20T00:11:28;19.35;;;9.50;;
1479;SDS011;732;51.698;4.886;2022-11-20T00:14:00;32.60;;;14.05;;
1479;SDS011;732;51.698;4.886;2022-11-20T00:16:30;26.05;;;10.60;;
1479;SDS011;732;51.698;4.886;2022-11-20T00:19:00;18.70;;;8.15;;
1479;SDS011;732;51.698;4.886;2022-11-20T00:21:28;19.52;;;7.78;;
1479;SDS011;732;51.698;4.886;2022-11-20T00:23:57;22.27;;;10.05;;
1479;SDS011;732;51.698;4.886;2022-11-20T00:26:26;20.33;;;8.00;;
1479;SDS011;732;51.698;4.886;2022-11-20T00:28:57;20.38;;;8.50;;
1479;SDS011;732;51.698;4.886;2022-11-20T00:31:28;21.50;;;8.00;;
1479;SDS011;732;51.698;4.886;2022-11-20T00:33:59;19.73;;;9.57;;
1479;SDS011;732;51.698;4.886;2022-11-20T00:36:28;19.40;;;7.07;;
1479;SDS011;732;51.698;4.886;2022-11-20T00:39:00;18.45;;;8.52;;
1479;SDS011;732;51.698;4.886;2022-11-20T00:41:29;21.38;;;8.93;;
1479;SDS011;732;51.698;4.886;2022-11-20T00:43:58;15.95;;;7.88;;
1479;SDS011;732;51.698;4.886;2022-11-20T00:46:28;21.17;;;8.52;;
1479;SDS011;732;51.698;4.886;2022-11-20T00:48:56;21.70;;;7.95;;
1479;SDS011;732;51.698;4.886;2022-11-20T00:51:25;20.00;;;8.75;;
1479;SDS011;732;51.698;4.886;2022-11-20T00:53:55;18.20;;;8.82;;
1479;SDS011;732;51.698;4.886;2022-11-20T00:56:26;20.75;;;9.13;;
1479;SDS011;732;51.698;4.886;2022-11-20T00:58:54;21.30;;;9.35;;
1479;SDS011;732;51.698;4.886;2022-11-20T01:01:24;20.10;;;8.50;;
1479;SDS011;732;51.698;4.886;2022-11-20T01:03:56;26.83;;;10.13;;
1479;SDS011;732;51.698;4.886;2022-11-20T01:06:27;23.38;;;9.60;;
1479;SDS011;732;51.698;4.886;2022-11-20T01:08:58;20.85;;;8.35;;
1479;SDS011;732;51.698;4.886;2022-11-20T01:11:30;21.83;;;8.70;;
1479;SDS011;732;51.698;4.886;2022-11-20T01:14:02;21.73;;;9.27;;
1479;SDS011;732;51.698;4.886;2022-11-20T01:16:34;18.33;;;8.45;;
1479;SDS011;732;51.698;4.886;2022-11-20T01:19:04;17.38;;;7.82;;
1479;SDS011;732;51.698;4.886;2022-11-20T01:21:43;21.88;;;9.15;;
1479;SDS011;732;51.698;4.886;2022-11-20T01:24:15;22.67;;;8.75;;
1479;SDS011;732;51.698;4.886;2022-11-20T01:26:46;26.98;;;9.45;;
1479;SDS011;732;51.698;4.886;2022-11-20T01:29:17;25.40;;;9.88;;
1479;SDS011;732;51.698;4.886;2022-11-20T01:31:50;20.98;;;9.02;;
1479;SDS011;732;51.698;4.886;2022-11-20T01:34:20;17.13;;;8.10;;
1479;SDS011;732;51.698;4.886;2022-11-20T01:36:50;18.10;;;7.90;;
1479;SDS011;732;51.698;4.886;2022-11-20T01:39:20;23.35;;;9.40;;
1479;SDS011;732;51.698;4.886;2022-11-20T01:41:50;20.50;;;8.95;;
1479;SDS011;732;51.698;4.886;2022-11-20T01:44:51;18.52;;;8.70;;
1479;SDS011;732;51.698;4.886;2022-11-20T01:47:25;17.58;;;8.15;;
1479;SDS011;732;51.698;4.886;2022-11-20T01:49:59;18.17;;;8.70;;
1479;SDS011;732;51.698;4.886;2022-11-20T01:52:38;22.30;;;8.05;;
1479;SDS011;732;51.698;4.886;2022-11-20T01:55:13;30.17;;;13.18;;
1479;SDS011;732;51.698;4.886;2022-11-20T01:57:45;23.73;;;10.75;;
1479;SDS011;732;51.698;4.886;2022-11-20T02:00:16;22.40;;;10.25;;
1479;SDS011;732;51.698;4.886;2022-11-20T02:02:54;21.60;;;8.80;;
1479;SDS011;732;51.698;4.886;2022-11-20T02:05:27;22.48;;;9.73;;
1479;SDS011;732;51.698;4.886;2022-11-20T02:08:01;26.08;;;9.77;;
1479;SDS011;732;51.698;4.886;2022-11-20T02:10:33;21.73;;;8.20;;
1479;SDS011;732;51.698;4.886;2022-11-20T02:13:02;16.23;;;9.18;;
1479;SDS011;732;51.698;4.886;2022-11-20T02:15:48;16.55;;;8.35;;
1479;SDS011;732;51.698;4.886;2022-11-20T02:18:19;21.35;;;9.43;;
1479;SDS011;732;51.698;4.886;2022-11-20T02:20:50;21.17;;;8.90;;
1479;SDS011;732;51.698;4.886;2022-11-20T02:23:26;18.75;;;10.48;;
1479;SDS011;732;51.698;4.886;2022-11-20T02:26:02;28.63;;;12.85;;
1479;SDS011;732;51.698;4.886;2022-11-20T02:28:35;29.83;;;13.82;;
1479;SDS011;732;51.698;4.886;2022-11-20T02:31:04;36.67;;;15.75;;
1479;SDS011;732;51.698;4.886;2022-11-20T02:33:32;36.38;;;16.08;;
1479;SDS011;732;51.698;4.886;2022-11-20T02:36:00;33.03;;;15.40;;
1479;SDS011;732;51.698;4.886;2022-11-20T02:38:29;42.00;;;18.67;;
1479;SDS011;732;51.698;4.886;2022-11-20T02:40:57;34.15;;;13.60;;
1479;SDS011;732;51.698;4.886;2022-11-20T02:43:27;33.15;;;14.18;;
1479;SDS011;732;51.698;4.886;2022-11-20T02:45:55;27.85;;;13.40;;
1479;SDS011;732;51.698;4.886;2022-11-20T02:48:24;30.75;;;12.00;;
1479;SDS011;732;51.698;4.886;2022-11-20T02:50:57;28.33;;;11.57;;
1479;SDS011;732;51.698;4.886;2022-11-20T02:53:26;23.15;;;9.98;;
1479;SDS011;732;51.698;4.886;2022-11-20T02:55:54;21.30;;;11.07;;
1479;SDS011;732;51.698;4.886;2022-11-20T02:58:22;22.50;;;9.70;;
1479;SDS011;732;51.698;4.886;2022-11-20T03:00:53;22.10;;;10.30;;
1479;SDS011;732;51.698;4.886;2022-11-20T03:03:22;24.92;;;10.38;;
1479;SDS011;732;51.698;4.886;2022-11-20T03:05:50;17.90;;;8.82;;
1479;SDS011;732;51.698;4.886;2022-11-20T03:08:19;18.60;;;9.02;;
1479;SDS011;732;51.698;4.886;2022-11-20T03:10:47;20.02;;;10.05;;
1479;SDS011;732;51.698;4.886;2022-11-20T03:13:15;17.33;;;8.23;;
1479;SDS011;732;51.698;4.886;2022-11-20T03:15:43;21.13;;;9.02;;
1479;SDS011;732;51.698;4.886;2022-11-20T03:18:13;21.50;;;8.45;;
1479;SDS011;732;51.698;4.886;2022-11-20T03:20:41;13.75;;;8.15;;
1479;SDS011;732;51.698;4.886;2022-11-20T03:23:09;18.23;;;7.35;;
1479;SDS011;732;51.698;4.886;2022-11-20T03:25:38;18.15;;;8.35;;
1479;SDS011;732;51.698;4.886;2022-11-20T03:28:06;20.25;;;9.68;;
1479;SDS011;732;51.698;4.886;2022-11-20T03:30:34;23.92;;;11.27;;
1479;SDS011;732;51.698;4.886;2022-11-20T03:33:03;23.15;;;9.35;;
1479;SDS011;732;51.698;4.886;2022-11-20T03:35:33;24.60;;;10.82;;
1479;SDS011;732;51.698;4.886;2022-11-20T03:38:01;19.33;;;9.65;;
1479;SDS011;732;51.698;4.886;2022-11-20T03:40:29;18.58;;;7.88;;
1479;SDS011;732;51.698;4.886;2022-11-20T03:42:57;22.83;;;9.15;;
1479;SDS011;732;51.698;4.886;2022-11-20T03:45:26;21.05;;;8.45;;
1479;SDS011;732;51.698;4.886;2022-11-20T03:47:54;23.15;;;10.00;;
1479;SDS011;732;51.698;4.886;2022-11-20T03:50:22;19.35;;;8.32;;
1479;SDS011;732;51.698;4.886;2022-11-20T03:52:52;23.15;;;9.73;;
1479;SDS011;732;51.698;4.886;2022-11-20T03:55:20;26.60;;;9.05;;
1479;SDS011;732;51.698;4.886;2022-11-20T03:57:48;22.40;;;9.02;;
1479;SDS011;732;51.698;4.886;2022-11-20T04:00:17;23.63;;;8.30;;
1479;SDS011;732;51.698;4.886;2022-11-20T04:02:45;21.23;;;9.52;;
1479;SDS011;732;51.698;4.886;2022-11-20T04:05:13;19.25;;;8.80;;
1479;SDS011;732;51.698;4.886;2022-11-20T04:07:42;21.13;;;8.48;;
1479;SDS011;732;51.698;4.886;2022-11-20T04:10:11;20.17;;;8.23;;
1479;SDS011;732;51.698;4.886;2022-11-20T04:12:40;23.23;;;8.95;;
1479;SDS011;732;51.698;4.886;2022-11-20T04:15:08;16.77;;;8.55;;
1479;SDS011;732;51.698;4.886;2022-11-20T04:17:37;23.23;;;8.70;;
1479;SDS011;732;51.698;4.886;2022-11-20T04:20:06;22.02;;;9.05;;
1479;SDS011;732;51.698;4.886;2022-11-20T04:22:35;22.05;;;9.20;;
1479;SDS011;732;51.698;4.886;2022-11-20T04:25:03;22.65;;;9.20;;
1479;SDS011;732;51.698;4.886;2022-11-20T04:27:34;23.55;;;9.13;;
1479;SDS011;732;51.698;4.886;2022-11-20T04:30:02;20.80;;;8.95;;
1479;SDS011;732;51.698;4.886;2022-11-20T04:32:31;19.08;;;9.35;;
1479;SDS011;732;51.698;4.886;2022-11-20T04:35:00;18.58;;;8.63;;
1479;SDS011;732;51.698;4.886;2022-11-20T04:37:28;20.48;;;8.27;;
1479;SDS011;732;51.698;4.886;2022-11-20T04:39:56;18.90;;;8.18;;
1479;SDS011;732;51.698;4.886;2022-11-20T04:42:24;23.02;;;8.80;;
1479;SDS011;732;51.698;4.886;2022-11-20T04:44:57;18.45;;;8.50;;
1479;SDS011;732;51.698;4.886;2022-11-20T04:47:25;17.30;;;8.32;;
1479;SDS011;732;51.698;4.886;2022-11-20T04:49:53;20.60;;;8.15;;
1479;SDS011;732;51.698;4.886;2022-11-20T04:52:22;21.50;;;8.52;;
1479;SDS011;732;51.698;4.886;2022-11-20T04:54:50;22.35;;;8.40;;
1479;SDS011;732;51.698;4.886;2022-11-20T04:57:20;21.83;;;8.63;;
1479;SDS011;732;51.698;4.886;2022-11-20T04:59:48;21.17;;;9.20;;
1479;SDS011;732;51.698;4.886;2022-11-20T05:02:18;24.05;;;9.05;;
1479;SDS011;732;51.698;4.886;2022-11-20T05:04:46;25.40;;;9.55;;
1479;SDS011;732;51.698;4.886;2022-11-20T05:07:15;23.55;;;9.57;;
1479;SDS011;732;51.698;4.886;2022-11-20T05:09:43;20.23;;;8.45;;
1479;SDS011;732;51.698;4.886;2022-11-20T05:12:11;18.98;;;9.05;;
1479;SDS011;732;51.698;4.886;2022-11-20T05:14:40;23.90;;;10.13;;
1479;SDS011;732;51.698;4.886;2022-11-20T05:17:09;20.75;;;9.55;;
1479;SDS011;732;51.698;4.886;2022-11-20T05:19:40;25.05;;;10.32;;
1479;SDS011;732;51.698;4.886;2022-11-20T05:22:08;27.08;;;10.13;;
1479;SDS011;732;51.698;4.886;2022-11-20T05:24:36;18.38;;;9.00;;
1479;SDS011;732;51.698;4.886;2022-11-20T05:27:05;17.10;;;7.80;;
1479;SDS011;732;51.698;4.886;2022-11-20T05:29:33;25.60;;;10.15;;
1479;SDS011;732;51.698;4.886;2022-11-20T05:32:01;23.38;;;9.60;;
1479;SDS011;732;51.698;4.886;2022-11-20T05:34:32;31.70;;;10.65;;
1479;SDS011;732;51.698;4.886;2022-11-20T05:37:01;19.35;;;8.95;;
1479;SDS011;732;51.698;4.886;2022-11-20T05:39:30;21.70;;;9.40;;
1479;SDS011;732;51.698;4.886;2022-11-20T05:41:58;26.42;;;9.98;;
1479;SDS011;732;51.698;4.886;2022-11-20T05:44:44;25.13;;;9.90;;
1479;SDS011;732;51.698;4.886;2022-11-20T05:47:12;25.17;;;9.23;;
1479;SDS011;732;51.698;4.886;2022-11-20T05:49:41;23.08;;;9.32;;
1479;SDS011;732;51.698;4.886;2022-11-20T05:52:10;23.45;;;9.00;;
1479;SDS011;732;51.698;4.886;2022-11-20T05:54:39;25.75;;;9.63;;
1479;SDS011;732;51.698;4.886;2022-11-20T05:57:07;22.45;;;8.93;;
1479;SDS011;732;51.698;4.886;2022-11-20T05:59:35;19.88;;;8.65;;
1479;SDS011;732;51.698;4.886;2022-11-20T06:02:04;19.50;;;9.52;;
1479;SDS011;732;51.698;4.886;2022-11-20T06:04:32;25.20;;;9.07;;
1479;SDS011;732;51.698;4.886;2022-11-20T06:07:01;15.43;;;8.93;;
1479;SDS011;732;51.698;4.886;2022-11-20T06:09:30;23.83;;;9.80;;
1479;SDS011;732;51.698;4.886;2022-11-20T06:11:59;28.85;;;10.65;;
1479;SDS011;732;51.698;4.886;2022-11-20T06:14:27;23.85;;;11.10;;
1479;SDS011;732;51.698;4.886;2022-11-20T06:16:55;20.08;;;9.23;;
1479;SDS011;732;51.698;4.886;2022-11-20T06:19:24;23.25;;;8.10;;
1479;SDS011;732;51.698;4.886;2022-11-20T06:21:52;21.08;;;8.32;;
1479;SDS011;732;51.698;4.886;2022-11-20T06:24:21;24.20;;;9.52;;
1479;SDS011;732;51.698;4.886;2022-11-20T06:26:50;24.05;;;10.48;;
1479;SDS011;732;51.698;4.886;2022-11-20T06:29:19;20.52;;;9.63;;
1479;SDS011;732;51.698;4.886;2022-11-20T06:31:48;24.80;;;9.85;;
1479;SDS011;732;51.698;4.886;2022-11-20T06:34:16;17.55;;;8.35;;
1479;SDS011;732;51.698;4.886;2022-11-20T06:36:45;21.60;;;7.47;;
1479;SDS011;732;51.698;4.886;2022-11-20T06:39:13;25.13;;;10.05;;
1479;SDS011;732;51.698;4.886;2022-11-20T06:41:41;28.08;;;10.77;;
1479;SDS011;732;51.698;4.886;2022-11-20T06:44:11;24.80;;;10.35;;
1479;SDS011;732;51.698;4.886;2022-11-20T06:46:39;23.55;;;8.55;;
1479;SDS011;732;51.698;4.886;2022-11-20T06:49:08;17.25;;;8.35;;
1479;SDS011;732;51.698;4.886;2022-11-20T06:51:36;19.73;;;8.98;;
1479;SDS011;732;51.698;4.886;2022-11-20T06:54:04;23.65;;;9.10;;
1479;SDS011;732;51.698;4.886;2022-11-20T06:56:33;27.35;;;10.00;;
1479;SDS011;732;51.698;4.886;2022-11-20T06:59:03;22.92;;;10.35;;
1479;SDS011;732;51.698;4.886;2022-11-20T07:01:34;19.58;;;9.23;;
1479;SDS011;732;51.698;4.886;2022-11-20T07:04:02;25.63;;;9.50;;
1479;SDS011;732;51.698;4.886;2022-11-20T07:06:31;20.85;;;9.10;;
1479;SDS011;732;51.698;4.886;2022-11-20T07:08:59;21.80;;;9.40;;
1479;SDS011;732;51.698;4.886;2022-11-20T07:11:27;26.23;;;9.90;;
1479;SDS011;732;51.698;4.886;2022-11-20T07:13:56;26.35;;;9.43;;
1479;SDS011;732;51.698;4.886;2022-11-20T07:16:25;22.65;;;8.48;;
1479;SDS011;732;51.698;4.886;2022-11-20T07:18:54;20.70;;;9.77;;
1479;SDS011;732;51.698;4.886;2022-11-20T07:21:23;22.23;;;10.05;;
1479;SDS011;732;51.698;4.886;2022-11-20T07:23:51;23.70;;;8.85;;
1479;SDS011;732;51.698;4.886;2022-11-20T07:26:19;19.35;;;8.40;;
1479;SDS011;732;51.698;4.886;2022-11-20T07:28:48;21.55;;;8.30;;
1479;SDS011;732;51.698;4.886;2022-11-20T07:31:16;24.40;;;10.25;;
1479;SDS011;732;51.698;4.886;2022-11-20T07:33:45;21.67;;;8.43;;
1479;SDS011;732;51.698;4.886;2022-11-20T07:36:15;22.33;;;10.07;;
1479;SDS011;732;51.698;4.886;2022-11-20T07:38:43;25.73;;;10.68;;
1479;SDS011;732;51.698;4.886;2022-11-20T07:41:11;25.63;;;10.73;;
1479;SDS011;732;51.698;4.886;2022-11-20T07:43:40;20.92;;;9.70;;
1479;SDS011;732;51.698;4.886;2022-11-20T07:46:08;25.73;;;10.77;;
1479;SDS011;732;51.698;4.886;2022-11-20T07:48:36;25.85;;;9.23;;
1479;SDS011;732;51.698;4.886;2022-11-20T07:51:05;24.80;;;11.25;;
1479;SDS011;732;51.698;4.886;2022-11-20T07:53:35;28.80;;;12.40;;
1479;SDS011;732;51.698;4.886;2022-11-20T07:56:03;26.30;;;10.98;;
1479;SDS011;732;51.698;4.886;2022-11-20T07:58:32;25.98;;;11.07;;
1479;SDS011;732;51.698;4.886;2022-11-20T08:01:03;25.33;;;11.77;;
1479;SDS011;732;51.698;4.886;2022-11-20T08:03:33;25.27;;;11.20;;
1479;SDS011;732;51.698;4.886;2022-11-20T08:06:03;27.02;;;10.57;;
1479;SDS011;732;51.698;4.886;2022-11-20T08:08:34;26.77;;;10.50;;
1479;SDS011;732;51.698;4.886;2022-11-20T08:11:08;28.50;;;12.70;;
1479;SDS011;732;51.698;4.886;2022-11-20T08:13:54;23.00;;;10.90;;
1479;SDS011;732;51.698;4.886;2022-11-20T08:16:41;23.00;;;10.90;;
1479;SDS011;732;51.698;4.886;2022-11-20T08:19:12;25.15;;;12.32;;
1479;SDS011;732;51.698;4.886;2022-11-20T08:21:42;25.73;;;11.13;;
1479;SDS011;732;51.698;4.886;2022-11-20T08:24:12;23.00;;;10.43;;
1479;SDS011;732;51.698;4.886;2022-11-20T08:26:41;23.07;;;10.20;;
1479;SDS011;732;51.698;4.886;2022-11-20T08:29:10;26.50;;;11.23;;
1479;SDS011;732;51.698;4.886;2022-11-20T08:31:38;23.20;;;9.63;;
1479;SDS011;732;51.698;4.886;2022-11-20T08:34:07;25.20;;;11.13;;
1479;SDS011;732;51.698;4.886;2022-11-20T08:36:41;23.63;;;12.07;;
1479;SDS011;732;51.698;4.886;2022-11-20T08:39:10;28.60;;;11.53;;
1479;SDS011;732;51.698;4.886;2022-11-20T08:41:41;25.23;;;11.70;;
1479;SDS011;732;51.698;4.886;2022-11-20T08:44:10;29.13;;;12.53;;
1479;SDS011;732;51.698;4.886;2022-11-20T08:46:39;25.67;;;11.87;;
1479;SDS011;732;51.698;4.886;2022-11-20T08:49:10;24.80;;;11.87;;
1479;SDS011;732;51.698;4.886;2022-11-20T08:51:40;30.77;;;11.20;;
1479;SDS011;732;51.698;4.886;2022-11-20T08:54:09;23.10;;;12.17;;
1479;SDS011;732;51.698;4.886;2022-11-20T08:56:39;30.53;;;13.10;;
1479;SDS011;732;51.698;4.886;2022-11-20T08:59:07;30.37;;;12.20;;
1479;SDS011;732;51.698;4.886;2022-11-20T09:01:55;23.57;;;12.00;;
1479;SDS011;732;51.698;4.886;2022-11-20T09:04:24;22.87;;;11.40;;
1479;SDS011;732;51.698;4.886;2022-11-20T09:06:53;28.27;;;13.07;;
1479;SDS011;732;51.698;4.886;2022-11-20T09:09:21;31.40;;;12.07;;
1479;SDS011;732;51.698;4.886;2022-11-20T09:11:51;26.80;;;12.60;;
1479;SDS011;732;51.698;4.886;2022-11-20T09:14:20;28.20;;;13.80;;
1479;SDS011;732;51.698;4.886;2022-11-20T09:16:51;27.63;;;12.27;;
1479;SDS011;732;51.698;4.886;2022-11-20T09:19:19;30.93;;;12.80;;
1479;SDS011;732;51.698;4.886;2022-11-20T09:22:03;26.70;;;13.20;;
1479;SDS011;732;51.698;4.886;2022-11-20T09:24:31;28.60;;;13.80;;
1479;SDS011;732;51.698;4.886;2022-11-20T09:27:02;26.87;;;12.83;;
1479;SDS011;732;51.698;4.886;2022-11-20T09:29:32;24.73;;;13.20;;
1479;SDS011;732;51.698;4.886;2022-11-20T09:32:01;35.30;;;13.83;;
1479;SDS011;732;51.698;4.886;2022-11-20T09:34:29;29.87;;;13.90;;
1479;SDS011;732;51.698;4.886;2022-11-20T09:36:58;28.87;;;13.63;;
1479;SDS011;732;51.698;4.886;2022-11-20T09:39:33;35.70;;;13.80;;
1479;SDS011;732;51.698;4.886;2022-11-20T09:42:11;32.70;;;13.67;;
1479;SDS011;732;51.698;4.886;2022-11-20T09:44:59;32.97;;;14.93;;
1479;SDS011;732;51.698;4.886;2022-11-20T09:47:43;25.37;;;13.47;;
1479;SDS011;732;51.698;4.886;2022-11-20T09:50:27;30.03;;;13.37;;
1479;SDS011;732;51.698;4.886;2022-11-20T09:53:12;28.73;;;13.60;;
1479;SDS011;732;51.698;4.886;2022-11-20T09:55:47;37.77;;;14.90;;
1479;SDS011;732;51.698;4.886;2022-11-20T09:58:19;34.17;;;14.90;;
1479;SDS011;732;51.698;4.886;2022-11-20T10:00:59;34.67;;;15.37;;
1479;SDS011;732;51.698;4.886;2022-11-20T10:03:39;31.50;;;14.57;;
1479;SDS011;732;51.698;4.886;2022-11-20T10:06:18;35.73;;;14.37;;
1479;SDS011;732;51.698;4.886;2022-11-20T10:09:01;31.93;;;14.13;;
1479;SDS011;732;51.698;4.886;2022-11-20T10:11:46;31.07;;;15.33;;
1479;SDS011;732;51.698;4.886;2022-11-20T10:14:28;39.57;;;15.30;;
1479;SDS011;732;51.698;4.886;2022-11-20T10:17:08;33.80;;;14.20;;
1479;SDS011;732;51.698;4.886;2022-11-20T10:19:54;36.83;;;15.50;;
1479;SDS011;732;51.698;4.886;2022-11-20T10:22:43;37.53;;;14.53;;
1479;SDS011;732;51.698;4.886;2022-11-20T10:25:30;30.87;;;14.40;;
1479;SDS011;732;51.698;4.886;2022-11-20T10:28:15;33.50;;;15.73;;
1479;SDS011;732;51.698;4.886;2022-11-20T10:30:57;37.20;;;14.00;;
1479;SDS011;732;51.698;4.886;2022-11-20T10:33:31;31.93;;;14.90;;
1479;SDS011;732;51.698;4.886;2022-11-20T10:36:23;28.73;;;14.93;;
1479;SDS011;732;51.698;4.886;2022-11-20T10:38:58;33.90;;;15.00;;
1479;SDS011;732;51.698;4.886;2022-11-20T10:41:34;26.67;;;14.50;;
1479;SDS011;732;51.698;4.886;2022-11-20T10:44:10;31.30;;;15.30;;
1479;SDS011;732;51.698;4.886;2022-11-20T10:47:04;33.07;;;15.33;;
1479;SDS011;732;51.698;4.886;2022-11-20T10:49:40;32.57;;;15.13;;
1479;SDS011;732;51.698;4.886;2022-11-20T10:52:12;34.83;;;16.00;;
1479;SDS011;732;51.698;4.886;2022-11-20T10:54:49;31.17;;;14.37;;
1479;SDS011;732;51.698;4.886;2022-11-20T10:57:31;37.67;;;17.40;;
1479;SDS011;732;51.698;4.886;2022-11-20T11:00:16;33.20;;;15.10;;
1479;SDS011;732;51.698;4.886;2022-11-20T11:02:47;33.67;;;14.23;;
1479;SDS011;732;51.698;4.886;2022-11-20T11:05:22;35.73;;;15.83;;
1479;SDS011;732;51.698;4.886;2022-11-20T11:08:00;36.07;;;15.97;;
1479;SDS011;732;51.698;4.886;2022-11-20T11:10:31;30.07;;;14.27;;
1479;SDS011;732;51.698;4.886;2022-11-20T11:13:07;34.70;;;14.87;;
1479;SDS011;732;51.698;4.886;2022-11-20T11:15:48;31.77;;;15.33;;
1479;SDS011;732;51.698;4.886;2022-11-20T11:18:24;37.07;;;16.53;;
1479;SDS011;732;51.698;4.886;2022-11-20T11:20:56;32.73;;;15.60;;
1479;SDS011;732;51.698;4.886;2022-11-20T11:23:31;41.20;;;17.20;;
1479;SDS011;732;51.698;4.886;2022-11-20T11:26:04;33.03;;;15.80;;
1479;SDS011;732;51.698;4.886;2022-11-20T11:28:35;36.83;;;16.30;;
1479;SDS011;732;51.698;4.886;2022-11-20T11:31:03;39.17;;;17.20;;
1479;SDS011;732;51.698;4.886;2022-11-20T11:33:33;26.43;;;13.80;;
1479;SDS011;732;51.698;4.886;2022-11-20T11:36:02;36.60;;;16.27;;
1479;SDS011;732;51.698;4.886;2022-11-20T11:38:44;36.80;;;17.00;;
1479;SDS011;732;51.698;4.886;2022-11-20T11:41:12;34.53;;;15.80;;
1479;SDS011;732;51.698;4.886;2022-11-20T11:43:49;38.20;;;17.03;;
1479;SDS011;732;51.698;4.886;2022-11-20T11:46:37;36.03;;;17.23;;
1479;SDS011;732;51.698;4.886;2022-11-20T11:49:16;36.13;;;15.90;;
1479;SDS011;732;51.698;4.886;2022-11-20T11:51:51;35.33;;;15.53;;
1479;SDS011;732;51.698;4.886;2022-11-20T11:54:34;36.43;;;16.93;;
1479;SDS011;732;51.698;4.886;2022-11-20T11:57:10;42.70;;;17.40;;
1479;SDS011;732;51.698;4.886;2022-11-20T11:59:49;46.77;;;19.30;;
1479;SDS011;732;51.698;4.886;2022-11-20T12:02:32;42.50;;;16.83;;
1479;SDS011;732;51.698;4.886;2022-11-20T12:05:15;42.80;;;16.90;;
1479;SDS011;732;51.698;4.886;2022-11-20T12:07:47;50.27;;;20.60;;
1479;SDS011;732;51.698;4.886;2022-11-20T12:10:21;38.77;;;16.83;;
1479;SDS011;732;51.698;4.886;2022-11-20T12:12:59;49.67;;;18.07;;
1479;SDS011;732;51.698;4.886;2022-11-20T12:15:37;50.97;;;18.87;;
1479;SDS011;732;51.698;4.886;2022-11-20T12:18:17;45.90;;;20.00;;
1479;SDS011;732;51.698;4.886;2022-11-20T12:20:51;48.13;;;19.47;;
1479;SDS011;732;51.698;4.886;2022-11-20T12:23:40;53.63;;;20.30;;
1479;SDS011;732;51.698;4.886;2022-11-20T12:26:23;40.63;;;18.20;;
1479;SDS011;732;51.698;4.886;2022-11-20T12:29:08;42.77;;;17.67;;
1479;SDS011;732;51.698;4.886;2022-11-20T12:35:04;43.60;;;18.90;;
1479;SDS011;732;51.698;4.886;2022-11-20T12:37:55;45.10;;;19.47;;
1479;SDS011;732;51.698;4.886;2022-11-20T12:40:41;53.57;;;19.30;;
1479;SDS011;732;51.698;4.886;2022-11-20T12:43:19;51.13;;;20.70;;
1479;SDS011;732;51.698;4.886;2022-11-20T12:46:24;44.77;;;17.20;;
1479;SDS011;732;51.698;4.886;2022-11-20T12:49:08;46.10;;;18.40;;
1479;SDS011;732;51.698;4.886;2022-11-20T12:52:06;48.87;;;17.80;;
1479;SDS011;732;51.698;4.886;2022-11-20T12:54:57;47.73;;;19.87;;
1479;SDS011;732;51.698;4.886;2022-11-20T12:57:54;43.77;;;19.00;;
1479;SDS011;732;51.698;4.886;2022-11-20T13:00:29;45.07;;;18.00;;
1479;SDS011;732;51.698;4.886;2022-11-20T13:03:17;52.43;;;20.30;;
1479;SDS011;732;51.698;4.886;2022-11-20T13:06:14;43.83;;;17.80;;
1479;SDS011;732;51.698;4.886;2022-11-20T13:08:45;55.83;;;19.37;;
1479;SDS011;732;51.698;4.886;2022-11-20T13:11:23;44.57;;;19.17;;
1479;SDS011;732;51.698;4.886;2022-11-20T13:17:00;48.57;;;19.60;;
1479;SDS011;732;51.698;4.886;2022-11-20T13:19:37;46.77;;;18.57;;
1479;SDS011;732;51.698;4.886;2022-11-20T13:22:07;50.30;;;17.97;;
1479;SDS011;732;51.698;4.886;2022-11-20T13:24:36;52.73;;;19.53;;
1479;SDS011;732;51.698;4.886;2022-11-20T13:27:17;47.90;;;19.13;;
1479;SDS011;732;51.698;4.886;2022-11-20T13:29:58;42.10;;;18.27;;
1479;SDS011;732;51.698;4.886;2022-11-20T13:32:31;51.83;;;20.27;;
1479;SDS011;732;51.698;4.886;2022-11-20T13:35:00;39.33;;;17.27;;
1479;SDS011;732;51.698;4.886;2022-11-20T13:37:32;45.67;;;18.27;;
1479;SDS011;732;51.698;4.886;2022-11-20T13:40:22;47.80;;;19.67;;
1479;SDS011;732;51.698;4.886;2022-11-20T13:42:54;52.33;;;18.40;;
1479;SDS011;732;51.698;4.886;2022-11-20T13:45:30;45.10;;;19.00;;
1479;SDS011;732;51.698;4.886;2022-11-20T13:48:01;43.57;;;17.33;;
1479;SDS011;732;51.698;4.886;2022-11-20T13:50:44;53.07;;;19.07;;
1479;SDS011;732;51.698;4.886;2022-11-20T13:53:27;46.23;;;19.10;;
1479;SDS011;732;51.698;4.886;2022-11-20T13:56:23;47.27;;;16.90;;
1479;SDS011;732;51.698;4.886;2022-11-20T13:59:05;45.70;;;17.80;;
1479;SDS011;732;51.698;4.886;2022-11-20T14:01:44;45.07;;;16.33;;
1479;SDS011;732;51.698;4.886;2022-11-20T14:04:15;43.77;;;17.90;;
1479;SDS011;732;51.698;4.886;2022-11-20T14:06:51;42.03;;;16.97;;
1479;SDS011;732;51.698;4.886;2022-11-20T14:09:27;44.37;;;16.73;;
1479;SDS011;732;51.698;4.886;2022-11-20T14:11:57;45.43;;;17.10;;
1479;SDS011;732;51.698;4.886;2022-11-20T14:14:28;40.50;;;17.47;;
1479;SDS011;732;51.698;4.886;2022-11-20T14:17:05;36.80;;;16.27;;
1479;SDS011;732;51.698;4.886;2022-11-20T14:19:34;43.70;;;16.60;;
1479;SDS011;732;51.698;4.886;2022-11-20T14:22:08;46.33;;;17.70;;
1479;SDS011;732;51.698;4.886;2022-11-20T14:24:46;46.80;;;18.00;;
1479;SDS011;732;51.698;4.886;2022-11-20T14:27:16;44.13;;;17.03;;
1479;SDS011;732;51.698;4.886;2022-11-20T14:29:49;45.23;;;17.50;;
1479;SDS011;732;51.698;4.886;2022-11-20T14:32:18;46.50;;;17.07;;
1479;SDS011;732;51.698;4.886;2022-11-20T14:34:55;55.17;;;18.80;;
1479;SDS011;732;51.698;4.886;2022-11-20T14:37:37;42.17;;;16.30;;
1479;SDS011;732;51.698;4.886;2022-11-20T14:40:21;50.07;;;16.40;;
1479;SDS011;732;51.698;4.886;2022-11-20T14:42:53;48.73;;;18.10;;
1479;SDS011;732;51.698;4.886;2022-11-20T14:45:24;46.73;;;16.33;;
1479;SDS011;732;51.698;4.886;2022-11-20T14:47:54;42.30;;;17.27;;
1479;SDS011;732;51.698;4.886;2022-11-20T14:50:26;48.07;;;17.53;;
1479;SDS011;732;51.698;4.886;2022-11-20T14:52:57;40.87;;;16.17;;
1479;SDS011;732;51.698;4.886;2022-11-20T14:55:28;53.33;;;18.30;;
1479;SDS011;732;51.698;4.886;2022-11-20T14:58:00;47.43;;;18.50;;
1479;SDS011;732;51.698;4.886;2022-11-20T15:00:32;47.57;;;17.57;;
1479;SDS011;732;51.698;4.886;2022-11-20T15:03:02;49.03;;;18.47;;
1479;SDS011;732;51.698;4.886;2022-11-20T15:05:46;41.30;;;16.57;;
1479;SDS011;732;51.698;4.886;2022-11-20T15:08:16;43.47;;;16.53;;
1479;SDS011;732;51.698;4.886;2022-11-20T15:10:45;39.57;;;15.77;;
1479;SDS011;732;51.698;4.886;2022-11-20T15:13:16;43.43;;;15.10;;
1479;SDS011;732;51.698;4.886;2022-11-20T15:15:54;41.80;;;15.80;;
1479;SDS011;732;51.698;4.886;2022-11-20T15:18:27;48.03;;;16.37;;
1479;SDS011;732;51.698;4.886;2022-11-20T15:20:58;36.73;;;15.00;;
1479;SDS011;732;51.698;4.886;2022-11-20T15:23:30;45.53;;;16.97;;
1479;SDS011;732;51.698;4.886;2022-11-20T15:25:59;49.20;;;17.83;;
1479;SDS011;732;51.698;4.886;2022-11-20T15:28:29;46.97;;;16.33;;
1479;SDS011;732;51.698;4.886;2022-11-20T15:31:02;48.40;;;16.97;;
1479;SDS011;732;51.698;4.886;2022-11-20T15:33:31;40.93;;;15.00;;
1479;SDS011;732;51.698;4.886;2022-11-20T15:36:00;43.50;;;16.33;;
1479;SDS011;732;51.698;4.886;2022-11-20T15:38:29;47.87;;;18.17;;
1479;SDS011;732;51.698;4.886;2022-11-20T15:40:58;52.30;;;17.03;;
1479;SDS011;732;51.698;4.886;2022-11-20T15:43:26;37.50;;;15.87;;
1479;SDS011;732;51.698;4.886;2022-11-20T15:45:55;38.73;;;15.47;;
1479;SDS011;732;51.698;4.886;2022-11-20T15:48:29;43.33;;;14.47;;